sensor_id;sensor_type;location;lat;lon;timestamp;P1;durP1;ratioP1;P2;durP2;ratioP2
23115;SDS011;11727;52.134;5.052;2023-10-31T00:01:47;7.68;;;2.88;;
23115;SDS011;11727;52.134;5.052;2023-10-31T00:04:14;7.63;;;3.43;;
23115;SDS011;11727;52.134;5.052;2023-10-31T00:06:40;11.13;;;3.72;;
23115;SDS011;11727;52.134;5.052;2023-10-31T00:09:06;6.90;;;3.50;;
23115;SDS011;11727;52.134;5.052;2023-10-31T00:11:31;7.70;;;3.40;;
23115;SDS011;11727;52.134;5.052;2023-10-31T00:13:57;11.35;;;3.80;;
23115;SDS011;11727;52.134;5.052;2023-10-31T00:16:23;12.05;;;4.68;;
23115;SDS011;11727;52.134;5.052;2023-10-31T00:18:49;10.15;;;4.13;;
23115;SDS011;11727;52.134;5.052;2023-10-31T00:21:14;12.20;;;4.25;;
23115;SDS011;11727;52.134;5.052;2023-10-31T00:23:43;7.88;;;3.78;;
23115;SDS011;11727;52.134;5.052;2023-10-31T00:26:13;8.88;;;3.75;;
23115;SDS011;11727;52.134;5.052;2023-10-31T00:28:40;11.02;;;4.07;;
23115;SDS011;11727;52.134;5.052;2023-10-31T00:31:05;10.73;;;3.72;;
23115;SDS011;11727;52.134;5.052;2023-10-31T00:33:33;13.15;;;3.83;;
23115;SDS011;11727;52.134;5.052;2023-10-31T00:36:04;7.72;;;2.92;;
23115;SDS011;11727;52.134;5.052;2023-10-31T00:38:31;7.35;;;2.92;;
23115;SDS011;11727;52.134;5.052;2023-10-31T00:40:56;6.85;;;3.15;;
23115;SDS011;11727;52.134;5.052;2023-10-31T00:43:22;10.40;;;4.28;;
23115;SDS011;11727;52.134;5.052;2023-10-31T00:45:47;7.78;;;3.80;;
23115;SDS011;11727;52.134;5.052;2023-10-31T00:48:13;5.22;;;2.70;;
23115;SDS011;11727;52.134;5.052;2023-10-31T00:50:39;14.45;;;3.28;;
23115;SDS011;11727;52.134;5.052;2023-10-31T00:53:04;6.35;;;2.15;;
23115;SDS011;11727;52.134;5.052;2023-10-31T00:55:30;5.65;;;1.75;;
23115;SDS011;11727;52.134;5.052;2023-10-31T00:57:55;4.80;;;1.80;;
23115;SDS011;11727;52.134;5.052;2023-10-31T01:00:21;4.80;;;1.55;;
23115;SDS011;11727;52.134;5.052;2023-10-31T01:02:47;5.22;;;1.42;;
23115;SDS011;11727;52.134;5.052;2023-10-31T01:05:12;4.45;;;1.15;;
23115;SDS011;11727;52.134;5.052;2023-10-31T01:07:38;4.32;;;1.13;;
23115;SDS011;11727;52.134;5.052;2023-10-31T01:10:04;5.90;;;1.10;;
23115;SDS011;11727;52.134;5.052;2023-10-31T01:12:30;5.40;;;1.65;;
23115;SDS011;11727;52.134;5.052;2023-10-31T01:14:56;5.50;;;1.52;;
23115;SDS011;11727;52.134;5.052;2023-10-31T01:17:22;6.90;;;2.42;;
23115;SDS011;11727;52.134;5.052;2023-10-31T01:19:47;10.82;;;3.10;;
23115;SDS011;11727;52.134;5.052;2023-10-31T01:22:13;10.50;;;3.20;;
23115;SDS011;11727;52.134;5.052;2023-10-31T01:24:38;9.98;;;3.67;;
23115;SDS011;11727;52.134;5.052;2023-10-31T01:27:04;11.27;;;3.90;;
23115;SDS011;11727;52.134;5.052;2023-10-31T01:29:30;10.27;;;3.53;;
23115;SDS011;11727;52.134;5.052;2023-10-31T01:31:56;7.60;;;2.97;;
23115;SDS011;11727;52.134;5.052;2023-10-31T01:34:21;8.07;;;3.38;;
23115;SDS011;11727;52.134;5.052;2023-10-31T01:36:47;9.80;;;4.20;;
23115;SDS011;11727;52.134;5.052;2023-10-31T01:39:13;12.77;;;4.82;;
23115;SDS011;11727;52.134;5.052;2023-10-31T01:41:41;13.40;;;5.03;;
23115;SDS011;11727;52.134;5.052;2023-10-31T01:44:07;18.40;;;5.70;;
23115;SDS011;11727;52.134;5.052;2023-10-31T01:46:33;12.57;;;5.85;;
23115;SDS011;11727;52.134;5.052;2023-10-31T01:48:59;15.40;;;6.05;;
23115;SDS011;11727;52.134;5.052;2023-10-31T01:51:25;21.45;;;6.20;;
23115;SDS011;11727;52.134;5.052;2023-10-31T01:53:54;11.90;;;5.75;;
23115;SDS011;11727;52.134;5.052;2023-10-31T01:56:20;11.23;;;5.43;;
23115;SDS011;11727;52.134;5.052;2023-10-31T01:58:47;14.20;;;5.30;;
23115;SDS011;11727;52.134;5.052;2023-10-31T02:01:14;15.45;;;5.20;;
23115;SDS011;11727;52.134;5.052;2023-10-31T02:03:40;9.55;;;4.47;;
23115;SDS011;11727;52.134;5.052;2023-10-31T02:06:06;9.80;;;4.63;;
23115;SDS011;11727;52.134;5.052;2023-10-31T02:08:31;7.47;;;3.97;;
23115;SDS011;11727;52.134;5.052;2023-10-31T02:10:58;8.45;;;4.10;;
23115;SDS011;11727;52.134;5.052;2023-10-31T02:13:24;11.07;;;3.80;;
23115;SDS011;11727;52.134;5.052;2023-10-31T02:15:50;6.75;;;3.55;;
23115;SDS011;11727;52.134;5.052;2023-10-31T02:18:15;11.80;;;4.13;;
23115;SDS011;11727;52.134;5.052;2023-10-31T02:20:41;6.40;;;3.05;;
23115;SDS011;11727;52.134;5.052;2023-10-31T02:23:07;10.98;;;3.97;;
23115;SDS011;11727;52.134;5.052;2023-10-31T02:25:32;7.82;;;2.90;;
23115;SDS011;11727;52.134;5.052;2023-10-31T02:27:58;9.10;;;3.63;;
23115;SDS011;11727;52.134;5.052;2023-10-31T02:30:24;11.25;;;3.30;;
23115;SDS011;11727;52.134;5.052;2023-10-31T02:32:50;14.05;;;3.28;;
23115;SDS011;11727;52.134;5.052;2023-10-31T02:35:16;10.10;;;3.35;;
23115;SDS011;11727;52.134;5.052;2023-10-31T02:37:43;5.55;;;2.95;;
23115;SDS011;11727;52.134;5.052;2023-10-31T02:40:12;14.38;;;3.55;;
23115;SDS011;11727;52.134;5.052;2023-10-31T02:42:38;7.60;;;2.67;;
23115;SDS011;11727;52.134;5.052;2023-10-31T02:45:04;7.03;;;2.30;;
23115;SDS011;11727;52.134;5.052;2023-10-31T02:47:30;8.27;;;2.08;;
23115;SDS011;11727;52.134;5.052;2023-10-31T02:49:56;7.20;;;1.75;;
23115;SDS011;11727;52.134;5.052;2023-10-31T02:52:21;8.38;;;1.88;;
23115;SDS011;11727;52.134;5.052;2023-10-31T02:54:47;5.78;;;1.40;;
23115;SDS011;11727;52.134;5.052;2023-10-31T02:57:13;4.50;;;1.65;;
23115;SDS011;11727;52.134;5.052;2023-10-31T02:59:39;2.08;;;0.80;;
23115;SDS011;11727;52.134;5.052;2023-10-31T03:02:05;3.38;;;0.88;;
23115;SDS011;11727;52.134;5.052;2023-10-31T03:04:30;4.22;;;1.27;;
23115;SDS011;11727;52.134;5.052;2023-10-31T03:06:56;4.80;;;1.05;;
23115;SDS011;11727;52.134;5.052;2023-10-31T03:09:21;1.10;;;0.45;;
23115;SDS011;11727;52.134;5.052;2023-10-31T03:11:47;1.70;;;0.50;;
23115;SDS011;11727;52.134;5.052;2023-10-31T03:14:13;3.65;;;0.65;;
23115;SDS011;11727;52.134;5.052;2023-10-31T03:16:38;4.30;;;0.50;;
23115;SDS011;11727;52.134;5.052;2023-10-31T03:19:04;3.67;;;0.68;;
23115;SDS011;11727;52.134;5.052;2023-10-31T03:21:30;4.30;;;0.40;;
23115;SDS011;11727;52.134;5.052;2023-10-31T03:23:56;0.73;;;0.40;;
23115;SDS011;11727;52.134;5.052;2023-10-31T03:26:22;1.63;;;0.32;;
23115;SDS011;11727;52.134;5.052;2023-10-31T03:28:48;3.72;;;0.55;;
23115;SDS011;11727;52.134;5.052;2023-10-31T03:31:14;2.58;;;0.55;;
23115;SDS011;11727;52.134;5.052;2023-10-31T03:33:40;6.38;;;0.50;;
23115;SDS011;11727;52.134;5.052;2023-10-31T03:36:07;1.92;;;0.40;;
23115;SDS011;11727;52.134;5.052;2023-10-31T03:38:34;2.78;;;0.52;;
23115;SDS011;11727;52.134;5.052;2023-10-31T03:41:00;1.38;;;0.38;;
23115;SDS011;11727;52.134;5.052;2023-10-31T03:43:26;3.78;;;0.30;;
23115;SDS011;11727;52.134;5.052;2023-10-31T03:45:52;1.35;;;0.40;;
23115;SDS011;11727;52.134;5.052;2023-10-31T03:48:18;3.40;;;0.43;;
23115;SDS011;11727;52.134;5.052;2023-10-31T03:50:43;1.08;;;0.30;;
23115;SDS011;11727;52.134;5.052;2023-10-31T03:53:09;1.55;;;0.20;;
23115;SDS011;11727;52.134;5.052;2023-10-31T03:55:35;1.38;;;0.22;;
23115;SDS011;11727;52.134;5.052;2023-10-31T03:58:01;1.17;;;0.25;;
23115;SDS011;11727;52.134;5.052;2023-10-31T04:00:27;1.35;;;0.17;;
23115;SDS011;11727;52.134;5.052;2023-10-31T04:02:52;1.05;;;0.30;;
23115;SDS011;11727;52.134;5.052;2023-10-31T04:05:18;1.95;;;0.25;;
23115;SDS011;11727;52.134;5.052;2023-10-31T04:07:45;3.70;;;0.20;;
23115;SDS011;11727;52.134;5.052;2023-10-31T04:10:11;0.20;;;0.20;;
23115;SDS011;11727;52.134;5.052;2023-10-31T04:12:38;1.00;;;0.20;;
23115;SDS011;11727;52.134;5.052;2023-10-31T04:15:04;0.10;;;0.10;;
23115;SDS011;11727;52.134;5.052;2023-10-31T04:17:30;0.35;;;0.30;;
23115;SDS011;11727;52.134;5.052;2023-10-31T04:19:56;0.52;;;0.10;;
23115;SDS011;11727;52.134;5.052;2023-10-31T04:22:22;2.53;;;0.20;;
23115;SDS011;11727;52.134;5.052;2023-10-31T04:24:47;0.10;;;0.10;;
23115;SDS011;11727;52.134;5.052;2023-10-31T04:27:13;0.25;;;0.00;;
23115;SDS011;11727;52.134;5.052;2023-10-31T04:29:39;0.30;;;0.10;;
23115;SDS011;11727;52.134;5.052;2023-10-31T04:32:04;1.75;;;0.40;;
23115;SDS011;11727;52.134;5.052;2023-10-31T04:34:30;0.70;;;0.10;;
23115;SDS011;11727;52.134;5.052;2023-10-31T04:36:56;0.38;;;0.10;;
23115;SDS011;11727;52.134;5.052;2023-10-31T04:39:22;0.30;;;0.10;;
23115;SDS011;11727;52.134;5.052;2023-10-31T04:41:48;1.10;;;0.20;;
23115;SDS011;11727;52.134;5.052;2023-10-31T04:44:14;0.65;;;0.30;;
23115;SDS011;11727;52.134;5.052;2023-10-31T04:46:41;1.25;;;0.13;;
23115;SDS011;11727;52.134;5.052;2023-10-31T04:49:08;0.98;;;0.20;;
23115;SDS011;11727;52.134;5.052;2023-10-31T04:51:37;2.08;;;0.15;;
23115;SDS011;11727;52.134;5.052;2023-10-31T04:54:03;0.17;;;0.10;;
23115;SDS011;11727;52.134;5.052;2023-10-31T04:56:29;1.15;;;0.10;;
23115;SDS011;11727;52.134;5.052;2023-10-31T04:58:55;0.20;;;0.10;;
23115;SDS011;11727;52.134;5.052;2023-10-31T05:01:21;1.05;;;0.20;;
23115;SDS011;11727;52.134;5.052;2023-10-31T05:03:47;0.25;;;0.20;;
23115;SDS011;11727;52.134;5.052;2023-10-31T05:06:12;1.15;;;0.20;;
23115;SDS011;11727;52.134;5.052;2023-10-31T05:08:38;0.60;;;0.20;;
23115;SDS011;11727;52.134;5.052;2023-10-31T05:11:04;0.63;;;0.43;;
23115;SDS011;11727;52.134;5.052;2023-10-31T05:13:29;1.15;;;0.30;;
23115;SDS011;11727;52.134;5.052;2023-10-31T05:15:55;4.60;;;0.40;;
23115;SDS011;11727;52.134;5.052;2023-10-31T05:18:21;2.78;;;0.73;;
23115;SDS011;11727;52.134;5.052;2023-10-31T05:20:47;1.95;;;0.70;;
23115;SDS011;11727;52.134;5.052;2023-10-31T05:23:13;7.30;;;1.02;;
23115;SDS011;11727;52.134;5.052;2023-10-31T05:25:39;3.25;;;0.90;;
23115;SDS011;11727;52.134;5.052;2023-10-31T05:28:04;2.72;;;1.20;;
23115;SDS011;11727;52.134;5.052;2023-10-31T05:30:30;6.40;;;1.25;;
23115;SDS011;11727;52.134;5.052;2023-10-31T05:32:56;4.20;;;1.33;;
23115;SDS011;11727;52.134;5.052;2023-10-31T05:35:21;3.00;;;1.33;;
23115;SDS011;11727;52.134;5.052;2023-10-31T05:37:47;5.00;;;1.05;;
23115;SDS011;11727;52.134;5.052;2023-10-31T05:40:13;4.68;;;1.00;;
23115;SDS011;11727;52.134;5.052;2023-10-31T05:42:40;5.97;;;1.20;;
23115;SDS011;11727;52.134;5.052;2023-10-31T05:45:06;4.70;;;0.90;;
23115;SDS011;11727;52.134;5.052;2023-10-31T05:47:31;4.28;;;1.35;;
23115;SDS011;11727;52.134;5.052;2023-10-31T05:50:00;6.28;;;1.52;;
23115;SDS011;11727;52.134;5.052;2023-10-31T05:52:29;6.28;;;2.50;;
23115;SDS011;11727;52.134;5.052;2023-10-31T05:54:55;6.70;;;2.40;;
23115;SDS011;11727;52.134;5.052;2023-10-31T05:57:21;7.53;;;2.75;;
23115;SDS011;11727;52.134;5.052;2023-10-31T05:59:46;5.90;;;2.75;;
23115;SDS011;11727;52.134;5.052;2023-10-31T06:02:13;5.03;;;3.00;;
23115;SDS011;11727;52.134;5.052;2023-10-31T06:04:39;7.05;;;2.63;;
23115;SDS011;11727;52.134;5.052;2023-10-31T06:07:04;5.07;;;2.53;;
23115;SDS011;11727;52.134;5.052;2023-10-31T06:09:30;7.38;;;2.80;;
23115;SDS011;11727;52.134;5.052;2023-10-31T06:11:58;6.65;;;2.83;;
23115;SDS011;11727;52.134;5.052;2023-10-31T06:14:23;4.72;;;2.03;;
23115;SDS011;11727;52.134;5.052;2023-10-31T06:16:50;8.10;;;2.15;;
23115;SDS011;11727;52.134;5.052;2023-10-31T06:19:16;4.50;;;1.95;;
23115;SDS011;11727;52.134;5.052;2023-10-31T06:21:42;6.20;;;2.75;;
23115;SDS011;11727;52.134;5.052;2023-10-31T06:24:07;3.17;;;1.30;;
23115;SDS011;11727;52.134;5.052;2023-10-31T06:26:33;2.28;;;1.13;;
23115;SDS011;11727;52.134;5.052;2023-10-31T06:28:59;2.75;;;1.00;;
23115;SDS011;11727;52.134;5.052;2023-10-31T06:31:24;5.15;;;1.08;;
23115;SDS011;11727;52.134;5.052;2023-10-31T06:33:50;5.68;;;0.88;;
23115;SDS011;11727;52.134;5.052;2023-10-31T06:36:19;7.32;;;0.90;;
23115;SDS011;11727;52.134;5.052;2023-10-31T06:38:47;3.90;;;0.70;;
23115;SDS011;11727;52.134;5.052;2023-10-31T06:41:13;1.13;;;0.50;;
23115;SDS011;11727;52.134;5.052;2023-10-31T06:43:38;1.38;;;0.60;;
23115;SDS011;11727;52.134;5.052;2023-10-31T06:46:04;5.50;;;0.60;;
23115;SDS011;11727;52.134;5.052;2023-10-31T06:48:30;2.92;;;0.60;;
23115;SDS011;11727;52.134;5.052;2023-10-31T06:50:56;1.63;;;0.47;;
23115;SDS011;11727;52.134;5.052;2023-10-31T06:53:22;2.00;;;0.70;;
23115;SDS011;11727;52.134;5.052;2023-10-31T06:55:47;3.92;;;0.60;;
23115;SDS011;11727;52.134;5.052;2023-10-31T06:58:20;5.75;;;0.90;;
23115;SDS011;11727;52.134;5.052;2023-10-31T07:00:46;2.65;;;0.70;;
23115;SDS011;11727;52.134;5.052;2023-10-31T07:03:11;1.20;;;0.50;;
23115;SDS011;11727;52.134;5.052;2023-10-31T07:05:40;2.03;;;0.93;;
23115;SDS011;11727;52.134;5.052;2023-10-31T07:08:06;1.30;;;0.60;;
23115;SDS011;11727;52.134;5.052;2023-10-31T07:10:32;4.63;;;1.13;;
23115;SDS011;11727;52.134;5.052;2023-10-31T07:12:58;3.50;;;0.77;;
23115;SDS011;11727;52.134;5.052;2023-10-31T07:15:27;2.13;;;0.65;;
23115;SDS011;11727;52.134;5.052;2023-10-31T07:17:52;1.63;;;0.40;;
23115;SDS011;11727;52.134;5.052;2023-10-31T07:20:18;3.92;;;0.63;;
23115;SDS011;11727;52.134;5.052;2023-10-31T07:22:44;2.78;;;0.80;;
23115;SDS011;11727;52.134;5.052;2023-10-31T07:25:10;2.80;;;0.63;;
23115;SDS011;11727;52.134;5.052;2023-10-31T07:27:36;2.50;;;0.80;;
23115;SDS011;11727;52.134;5.052;2023-10-31T07:30:05;3.42;;;0.85;;
23115;SDS011;11727;52.134;5.052;2023-10-31T07:32:31;2.33;;;0.70;;
23115;SDS011;11727;52.134;5.052;2023-10-31T07:34:57;3.13;;;0.82;;
23115;SDS011;11727;52.134;5.052;2023-10-31T07:37:23;1.40;;;0.50;;
23115;SDS011;11727;52.134;5.052;2023-10-31T07:39:48;0.90;;;0.50;;
23115;SDS011;11727;52.134;5.052;2023-10-31T07:42:16;3.63;;;0.85;;
23115;SDS011;11727;52.134;5.052;2023-10-31T07:44:41;2.67;;;0.75;;
23115;SDS011;11727;52.134;5.052;2023-10-31T07:47:07;3.67;;;1.02;;
23115;SDS011;11727;52.134;5.052;2023-10-31T07:49:32;4.18;;;1.02;;
23115;SDS011;11727;52.134;5.052;2023-10-31T07:51:58;3.15;;;1.00;;
23115;SDS011;11727;52.134;5.052;2023-10-31T07:54:24;3.97;;;1.25;;
23115;SDS011;11727;52.134;5.052;2023-10-31T07:56:49;1.35;;;0.70;;
23115;SDS011;11727;52.134;5.052;2023-10-31T07:59:15;6.78;;;1.10;;
23115;SDS011;11727;52.134;5.052;2023-10-31T08:01:40;3.85;;;1.17;;
23115;SDS011;11727;52.134;5.052;2023-10-31T08:04:06;6.35;;;1.40;;
23115;SDS011;11727;52.134;5.052;2023-10-31T08:06:32;3.95;;;1.08;;
23115;SDS011;11727;52.134;5.052;2023-10-31T08:08:57;5.13;;;1.08;;
23115;SDS011;11727;52.134;5.052;2023-10-31T08:11:23;7.07;;;1.33;;
23115;SDS011;11727;52.134;5.052;2023-10-31T08:13:49;5.82;;;1.85;;
23115;SDS011;11727;52.134;5.052;2023-10-31T08:16:18;11.02;;;1.75;;
23115;SDS011;11727;52.134;5.052;2023-10-31T08:18:48;5.18;;;1.73;;
23115;SDS011;11727;52.134;5.052;2023-10-31T08:21:14;6.43;;;1.90;;
23115;SDS011;11727;52.134;5.052;2023-10-31T08:23:39;4.68;;;1.77;;
23115;SDS011;11727;52.134;5.052;2023-10-31T08:26:05;5.38;;;1.42;;
23115;SDS011;11727;52.134;5.052;2023-10-31T08:28:31;5.72;;;1.98;;
23115;SDS011;11727;52.134;5.052;2023-10-31T08:30:57;5.28;;;1.48;;
23115;SDS011;11727;52.134;5.052;2023-10-31T08:33:22;10.25;;;2.13;;
23115;SDS011;11727;52.134;5.052;2023-10-31T08:35:48;4.43;;;1.95;;
23115;SDS011;11727;52.134;5.052;2023-10-31T08:38:14;6.78;;;1.55;;
23115;SDS011;11727;52.134;5.052;2023-10-31T08:40:40;5.45;;;2.00;;
23115;SDS011;11727;52.134;5.052;2023-10-31T08:43:06;5.15;;;1.63;;
23115;SDS011;11727;52.134;5.052;2023-10-31T08:45:32;5.13;;;1.80;;
23115;SDS011;11727;52.134;5.052;2023-10-31T08:47:58;6.90;;;1.55;;
23115;SDS011;11727;52.134;5.052;2023-10-31T08:50:25;10.00;;;2.28;;
23115;SDS011;11727;52.134;5.052;2023-10-31T08:52:51;5.80;;;1.90;;
23115;SDS011;11727;52.134;5.052;2023-10-31T08:55:16;4.32;;;1.45;;
23115;SDS011;11727;52.134;5.052;2023-10-31T08:57:42;7.22;;;1.73;;
23115;SDS011;11727;52.134;5.052;2023-10-31T09:00:08;7.75;;;2.30;;
23115;SDS011;11727;52.134;5.052;2023-10-31T09:02:34;5.30;;;2.00;;
23115;SDS011;11727;52.134;5.052;2023-10-31T09:05:00;5.43;;;2.22;;
23115;SDS011;11727;52.134;5.052;2023-10-31T09:07:25;9.20;;;2.10;;
23115;SDS011;11727;52.134;5.052;2023-10-31T09:09:52;8.65;;;2.40;;
23115;SDS011;11727;52.134;5.052;2023-10-31T09:12:17;9.35;;;2.28;;
23115;SDS011;11727;52.134;5.052;2023-10-31T09:14:43;7.75;;;1.95;;
23115;SDS011;11727;52.134;5.052;2023-10-31T09:17:09;8.82;;;2.17;;
23115;SDS011;11727;52.134;5.052;2023-10-31T09:19:34;6.07;;;1.65;;
23115;SDS011;11727;52.134;5.052;2023-10-31T09:22:00;5.18;;;1.90;;
23115;SDS011;11727;52.134;5.052;2023-10-31T09:24:26;7.47;;;2.58;;
23115;SDS011;11727;52.134;5.052;2023-10-31T09:26:51;8.32;;;2.30;;
23115;SDS011;11727;52.134;5.052;2023-10-31T09:29:17;7.68;;;2.38;;
23115;SDS011;11727;52.134;5.052;2023-10-31T09:31:42;5.22;;;1.80;;
23115;SDS011;11727;52.134;5.052;2023-10-31T09:34:08;13.02;;;2.70;;
23115;SDS011;11727;52.134;5.052;2023-10-31T09:36:34;15.98;;;2.88;;
23115;SDS011;11727;52.134;5.052;2023-10-31T09:39:00;4.65;;;2.58;;
23115;SDS011;11727;52.134;5.052;2023-10-31T09:41:26;7.03;;;2.45;;
23115;SDS011;11727;52.134;5.052;2023-10-31T09:43:52;9.38;;;2.60;;
23115;SDS011;11727;52.134;5.052;2023-10-31T09:46:18;13.82;;;3.10;;
23115;SDS011;11727;52.134;5.052;2023-10-31T09:48:45;12.98;;;3.00;;
23115;SDS011;11727;52.134;5.052;2023-10-31T09:51:11;5.68;;;2.33;;
23115;SDS011;11727;52.134;5.052;2023-10-31T09:53:37;9.00;;;2.42;;
23115;SDS011;11727;52.134;5.052;2023-10-31T09:56:04;11.05;;;3.28;;
23115;SDS011;11727;52.134;5.052;2023-10-31T09:58:31;8.63;;;3.88;;
23115;SDS011;11727;52.134;5.052;2023-10-31T10:00:56;8.18;;;3.25;;
23115;SDS011;11727;52.134;5.052;2023-10-31T10:03:22;8.02;;;3.53;;
23115;SDS011;11727;52.134;5.052;2023-10-31T10:05:49;9.40;;;2.97;;
23115;SDS011;11727;52.134;5.052;2023-10-31T10:08:15;10.00;;;3.20;;
23115;SDS011;11727;52.134;5.052;2023-10-31T10:10:41;5.70;;;3.22;;
23115;SDS011;11727;52.134;5.052;2023-10-31T10:13:07;13.73;;;3.22;;
23115;SDS011;11727;52.134;5.052;2023-10-31T10:15:43;11.88;;;3.78;;
23115;SDS011;11727;52.134;5.052;2023-10-31T10:18:28;8.82;;;3.33;;
23115;SDS011;11727;52.134;5.052;2023-10-31T10:23:25;9.25;;;3.10;;
23115;SDS011;11727;52.134;5.052;2023-10-31T10:25:51;15.15;;;4.05;;
23115;SDS011;11727;52.134;5.052;2023-10-31T10:28:18;6.90;;;2.47;;
23115;SDS011;11727;52.134;5.052;2023-10-31T10:30:47;8.43;;;3.28;;
23115;SDS011;11727;52.134;5.052;2023-10-31T10:33:16;10.80;;;3.97;;
23115;SDS011;11727;52.134;5.052;2023-10-31T10:35:43;15.02;;;3.10;;
23115;SDS011;11727;52.134;5.052;2023-10-31T10:38:10;14.93;;;3.67;;
23115;SDS011;11727;52.134;5.052;2023-10-31T10:40:41;7.25;;;3.10;;
23115;SDS011;11727;52.134;5.052;2023-10-31T10:43:23;8.25;;;2.38;;
23115;SDS011;11727;52.134;5.052;2023-10-31T10:45:59;7.05;;;2.25;;
23115;SDS011;11727;52.134;5.052;2023-10-31T10:48:25;9.38;;;2.70;;
23115;SDS011;11727;52.134;5.052;2023-10-31T10:50:57;7.00;;;3.00;;
23115;SDS011;11727;52.134;5.052;2023-10-31T10:53:30;14.48;;;2.47;;
23115;SDS011;11727;52.134;5.052;2023-10-31T10:56:08;11.88;;;2.65;;
23115;SDS011;11727;52.134;5.052;2023-10-31T10:58:55;5.65;;;2.05;;
23115;SDS011;11727;52.134;5.052;2023-10-31T11:01:25;7.57;;;1.60;;
23115;SDS011;11727;52.134;5.052;2023-10-31T11:06:19;6.90;;;2.28;;
23115;SDS011;11727;52.134;5.052;2023-10-31T11:08:45;5.15;;;1.15;;
23115;SDS011;11727;52.134;5.052;2023-10-31T11:11:12;2.58;;;1.08;;
23115;SDS011;11727;52.134;5.052;2023-10-31T11:13:37;5.20;;;1.10;;
23115;SDS011;11727;52.134;5.052;2023-10-31T11:16:17;4.47;;;1.75;;
23115;SDS011;11727;52.134;5.052;2023-10-31T11:19:10;12.32;;;1.40;;
23115;SDS011;11727;52.134;5.052;2023-10-31T11:21:36;4.75;;;1.35;;
23115;SDS011;11727;52.134;5.052;2023-10-31T11:24:17;8.65;;;1.70;;
23115;SDS011;11727;52.134;5.052;2023-10-31T11:26:50;7.72;;;1.63;;
23115;SDS011;11727;52.134;5.052;2023-10-31T11:29:17;10.02;;;1.88;;
23115;SDS011;11727;52.134;5.052;2023-10-31T11:31:43;4.90;;;1.58;;
23115;SDS011;11727;52.134;5.052;2023-10-31T11:34:08;10.32;;;2.00;;
23115;SDS011;11727;52.134;5.052;2023-10-31T11:36:37;4.97;;;1.88;;
23115;SDS011;11727;52.134;5.052;2023-10-31T11:39:10;7.03;;;2.20;;
23115;SDS011;11727;52.134;5.052;2023-10-31T11:41:40;9.83;;;1.83;;
23115;SDS011;11727;52.134;5.052;2023-10-31T11:44:10;3.53;;;1.42;;
23115;SDS011;11727;52.134;5.052;2023-10-31T11:46:36;10.13;;;2.47;;
23115;SDS011;11727;52.134;5.052;2023-10-31T11:49:01;9.35;;;2.35;;
23115;SDS011;11727;52.134;5.052;2023-10-31T11:51:30;6.63;;;2.20;;
23115;SDS011;11727;52.134;5.052;2023-10-31T11:53:55;14.27;;;4.05;;
23115;SDS011;11727;52.134;5.052;2023-10-31T11:56:21;14.00;;;5.97;;
23115;SDS011;11727;52.134;5.052;2023-10-31T11:59:03;15.63;;;7.05;;
23115;SDS011;11727;52.134;5.052;2023-10-31T12:01:31;18.83;;;6.32;;
23115;SDS011;11727;52.134;5.052;2023-10-31T12:03:57;16.80;;;6.70;;
23115;SDS011;11727;52.134;5.052;2023-10-31T12:06:23;18.60;;;7.85;;
23115;SDS011;11727;52.134;5.052;2023-10-31T12:08:48;19.98;;;8.30;;
23115;SDS011;11727;52.134;5.052;2023-10-31T12:11:15;18.48;;;8.35;;
23115;SDS011;11727;52.134;5.052;2023-10-31T12:13:58;19.63;;;9.32;;
23115;SDS011;11727;52.134;5.052;2023-10-31T12:16:26;20.85;;;10.05;;
23115;SDS011;11727;52.134;5.052;2023-10-31T12:18:57;16.70;;;8.20;;
23115;SDS011;11727;52.134;5.052;2023-10-31T12:24:07;24.77;;;10.73;;
23115;SDS011;11727;52.134;5.052;2023-10-31T12:26:34;20.63;;;9.13;;
23115;SDS011;11727;52.134;5.052;2023-10-31T12:29:13;26.00;;;9.55;;
23115;SDS011;11727;52.134;5.052;2023-10-31T12:34:10;24.08;;;9.63;;
23115;SDS011;11727;52.134;5.052;2023-10-31T12:36:36;30.10;;;10.82;;
23115;SDS011;11727;52.134;5.052;2023-10-31T12:39:04;27.88;;;10.18;;
23115;SDS011;11727;52.134;5.052;2023-10-31T12:41:32;25.33;;;10.05;;
23115;SDS011;11727;52.134;5.052;2023-10-31T12:43:58;26.38;;;10.48;;
23115;SDS011;11727;52.134;5.052;2023-10-31T12:46:34;26.60;;;9.82;;
23115;SDS011;11727;52.134;5.052;2023-10-31T12:49:00;28.52;;;9.63;;
23115;SDS011;11727;52.134;5.052;2023-10-31T12:51:26;25.08;;;8.70;;
23115;SDS011;11727;52.134;5.052;2023-10-31T12:53:52;23.52;;;9.38;;
23115;SDS011;11727;52.134;5.052;2023-10-31T12:59:09;21.27;;;8.45;;
23115;SDS011;11727;52.134;5.052;2023-10-31T13:01:44;24.67;;;10.50;;
23115;SDS011;11727;52.134;5.052;2023-10-31T13:04:10;17.63;;;8.32;;
23115;SDS011;11727;52.134;5.052;2023-10-31T13:06:36;19.38;;;8.23;;
23115;SDS011;11727;52.134;5.052;2023-10-31T13:09:03;15.80;;;7.75;;
23115;SDS011;11727;52.134;5.052;2023-10-31T13:11:36;19.45;;;8.38;;
23115;SDS011;11727;52.134;5.052;2023-10-31T13:14:04;18.55;;;8.10;;
23115;SDS011;11727;52.134;5.052;2023-10-31T13:16:31;19.98;;;8.00;;
23115;SDS011;11727;52.134;5.052;2023-10-31T13:18:58;21.27;;;8.55;;
23115;SDS011;11727;52.134;5.052;2023-10-31T13:21:24;15.57;;;8.07;;
23115;SDS011;11727;52.134;5.052;2023-10-31T13:23:50;16.00;;;7.57;;
23115;SDS011;11727;52.134;5.052;2023-10-31T13:26:16;24.38;;;8.63;;
23115;SDS011;11727;52.134;5.052;2023-10-31T13:28:41;20.83;;;9.43;;
23115;SDS011;11727;52.134;5.052;2023-10-31T13:31:07;29.65;;;10.00;;
23115;SDS011;11727;52.134;5.052;2023-10-31T13:33:33;24.45;;;10.07;;
23115;SDS011;11727;52.134;5.052;2023-10-31T13:36:00;21.48;;;9.68;;
23115;SDS011;11727;52.134;5.052;2023-10-31T13:38:25;28.38;;;10.45;;
23115;SDS011;11727;52.134;5.052;2023-10-31T13:40:51;24.45;;;10.70;;
23115;SDS011;11727;52.134;5.052;2023-10-31T13:43:17;24.63;;;11.48;;
23115;SDS011;11727;52.134;5.052;2023-10-31T13:45:42;27.48;;;13.18;;
23115;SDS011;11727;52.134;5.052;2023-10-31T13:48:27;34.40;;;13.32;;
23115;SDS011;11727;52.134;5.052;2023-10-31T13:50:53;30.52;;;13.45;;
23115;SDS011;11727;52.134;5.052;2023-10-31T13:53:18;32.67;;;14.20;;
23115;SDS011;11727;52.134;5.052;2023-10-31T13:55:44;33.40;;;13.75;;
23115;SDS011;11727;52.134;5.052;2023-10-31T13:58:10;36.00;;;14.20;;
23115;SDS011;11727;52.134;5.052;2023-10-31T14:00:36;32.92;;;13.70;;
23115;SDS011;11727;52.134;5.052;2023-10-31T14:03:02;40.03;;;15.50;;
23115;SDS011;11727;52.134;5.052;2023-10-31T14:05:27;34.33;;;15.73;;
23115;SDS011;11727;52.134;5.052;2023-10-31T14:07:53;35.55;;;14.80;;
23115;SDS011;11727;52.134;5.052;2023-10-31T14:10:22;34.40;;;13.80;;
23115;SDS011;11727;52.134;5.052;2023-10-31T14:12:49;32.95;;;15.05;;
23115;SDS011;11727;52.134;5.052;2023-10-31T14:15:15;33.47;;;13.98;;
23115;SDS011;11727;52.134;5.052;2023-10-31T14:17:41;31.55;;;13.80;;
23115;SDS011;11727;52.134;5.052;2023-10-31T14:20:07;30.63;;;12.85;;
23115;SDS011;11727;52.134;5.052;2023-10-31T14:22:33;31.75;;;12.68;;
23115;SDS011;11727;52.134;5.052;2023-10-31T14:24:58;29.60;;;12.55;;
23115;SDS011;11727;52.134;5.052;2023-10-31T14:27:32;25.75;;;11.10;;
23115;SDS011;11727;52.134;5.052;2023-10-31T14:30:01;24.88;;;11.57;;
23115;SDS011;11727;52.134;5.052;2023-10-31T14:32:27;24.55;;;11.32;;
23115;SDS011;11727;52.134;5.052;2023-10-31T14:34:53;25.42;;;11.63;;
23115;SDS011;11727;52.134;5.052;2023-10-31T14:37:18;25.90;;;11.27;;
23115;SDS011;11727;52.134;5.052;2023-10-31T14:39:44;23.70;;;10.88;;
23115;SDS011;11727;52.134;5.052;2023-10-31T14:42:10;24.83;;;11.82;;
23115;SDS011;11727;52.134;5.052;2023-10-31T14:44:36;23.40;;;11.48;;
23115;SDS011;11727;52.134;5.052;2023-10-31T14:47:02;29.30;;;12.15;;
23115;SDS011;11727;52.134;5.052;2023-10-31T14:49:27;24.00;;;11.50;;
23115;SDS011;11727;52.134;5.052;2023-10-31T14:51:53;24.88;;;11.32;;